AirNav   Pilot Hours Calculator
 
 1119 users online  

OK68 6B Airfield
Bokchito, Oklahoma, USA

GOING TO BOKCHITO?


FAA INFORMATION EFFECTIVE 03 NOVEMBER 2022

Location

FAA Identifier: OK68
Lat/Long: 33-52-43.6100N 096-04-57.1000W
33-52.726833N 096-04.951667W
33.8787806,-96.0825278
(estimated)
Elevation: 542 ft. / 165 m (estimated)
From city: 9 miles SSE of BOKCHITO, OK
Time zone: UTC -6 (UTC -5 during Daylight Saving Time)
Zip code: 75488

Airport Operations

Airport use: Private use. Permission required prior to landing
Activation date: 02/2020
Control tower: no
ARTCC: FORT WORTH CENTER
FSS: MC ALESTER FLIGHT SERVICE STATION
Attendance: 
Wind indicator: no
Segmented circle: no

Airport Communications

WX AWOS-3 at DUA (16 nm W): 124.175 (580-931-3790)
WX AWOS-3PT at F00 (17 nm S): 118.05 (903-583-2082)

Nearby radio navigation aids

VOR radial/distance  VOR name  Freq  Var
BYPr014/21.8BONHAM VORTAC114.6006E
PRXr296/37.5PARIS VOR/DME113.6007E

 
NDB name  Hdg/Dist  Freq  Var  ID
DENISON078/29.434106EDNI -.. -. ..

Airport Services

Runway Information

Runway 1/19

Dimensions: 2838 x 85 ft. / 865 x 26 m
Surface: turf, in fair condition
RUNWAY 1  RUNWAY 19
Traffic pattern: leftleft

Airport Ownership and Management from official FAA records

Ownership: Privately-owned
Owner: STEVE BRAMBLETT
724 SOUTH WADE ROAD
BENNINGTON, OK 74723
Phone 580-847-2255
Manager: STEVE BRAMBLETT
724 SOUTH WADE ROAD
BENNINGTON, OK 74723
Phone 580-847-2255

Airport Operational Statistics

Aircraft based on the field: 1
Single engine airplanes: 1
    

Instrument Procedures

There are no published instrument procedures at OK68.

Some nearby airports with instrument procedures:

KDUA - Durant Regional Airport - Eaker Field (16 nm W)
F00 - Jones Field Airport (17 nm S)
KHHW - Stan Stamper Municipal Airport (28 nm E)
80F - Antlers Municipal Airport (29 nm NE)
KSWI - Sherman Municipal Airport (29 nm SW)
 
Loc | Ops | Rwys | IFR | FBO | Links
Com | Nav | Svcs | Stats | Notes
Aerial photo
No photo
 
Airport distance calculator
Flying to 6B Airfield? Find the distance to fly.

From to OK68

Sunrise and sunset
Times for 29-Nov-2022
 Local
(UTC-6)
 Zulu
(UTC)
Morning civil twilight06:4312:43
Sunrise07:1113:11
Sunset17:1523:15
Evening civil twilight17:4223:42

Current date and time
Zulu (UTC)  30-Nov-2022 00:04:34
Local (UTC-6)  29-Nov-2022 18:04:34
 
METAR
KDUA 
16nm W 
292355Z AUTO 32005KT 10SM CLR 21/03 A2973 RMK AO2
KF00 
17nm S 
292335Z AUTO 23005KT 10SM CLR 21/13 A2970 RMK AO2 T02070131
KHHW 
28nm E 
292336Z AUTO 23005KT 10SM CLR 21/11 A2969 RMK AO2
KGYI 
31nm W 
292350Z 31008KT 10SM CLR 20/07 A2975
TAF
NOTAMs
Click for the latest NOTAMs
NOTAMs are issued by the DoD/FAA and will open in a separate window not controlled by AirNav.

 

 
 

Would you like to see your business listed on this page?

 If your business provides an interesting product or service to pilots, flight crews, aircraft, or users of the 6B Airfield, you should consider listing it here.  To start the listing process, click on the button below
 
Add a business
 

Other Pages about 6B Airfield

Update a link
 
Copyright © AirNav, LLC. All rights reserved. Privacy Policy  Contact